Time;durP1;ratioP1;P1;durP2;ratioP2;P2;SDS_P1;SDS_P2;PMS_P1;PMS_P2;Temp;Humidity;BMP_temperature;BMP_pressure;BME280_temperature;BME280_humidity;BME280_pressure;Samples;Min_cycle;Max_cycle;Signal;HPM_P1;HPM_P2
2022/12/30 00:00:19;;;;;;;;;;;;;;;9.15;68.79;100893.41;5015176;28;19955;-74
2022/12/30 00:02:44;;;;;;;;;;;;;;;9.15;68.66;100896.94;5015519;28;20348;-75
2022/12/30 00:05:09;;;;;;;;;;;;;;;9.14;68.83;100905.25;5014981;28;19914;-75
2022/12/30 00:07:35;;;;;;;;;;;;;;;9.13;68.67;100915.22;5014804;28;19919;-75
2022/12/30 00:10:01;;;;;;;;;;;;;;;9.12;68.61;100910.03;5015114;28;20377;-75
2022/12/30 00:34:32;;;;;;;;;;;;;;;9.03;68.83;100909.53;5015132;28;19928;-75
2022/12/30 00:36:58;;;;;;;;;;;;;;;9.02;68.69;100918.66;5014631;28;19921;-75
2022/12/30 00:39:23;;;;;;;;;;;;;;;9.03;68.79;100913.06;5014245;28;19917;-75
2022/12/30 00:44:32;;;;;;;;;;;;;;;9.01;68.72;100922.41;5014032;28;19923;-76
2022/12/30 00:46:58;;;;;;;;;;;;;;;9.00;68.86;100927.00;5014994;28;20264;-76
2022/12/30 00:57:35;;;;;;;;;;;;;;;8.97;68.77;100923.91;5014339;28;19920;-75
2022/12/30 01:00:01;;;;;;;;;;;;;;;8.96;68.70;100925.78;5014185;28;19913;-75
2022/12/30 01:02:26;;;;;;;;;;;;;;;8.96;68.74;100927.66;5013229;28;19918;-75
2022/12/30 01:04:51;;;;;;;;;;;;;;;8.94;68.81;100938.66;5013231;28;20338;-75
2022/12/30 01:07:17;;;;;;;;;;;;;;;8.93;68.93;100928.13;5014193;28;19924;-75
2022/12/30 01:09:42;;;;;;;;;;;;;;;8.92;68.95;100930.00;5014164;28;20428;-75
2022/12/30 01:12:07;;;;;;;;;;;;;;;8.92;68.98;100931.84;5014662;28;19917;-77
2022/12/30 01:14:53;;;;;;;;;;;;;;;8.91;68.92;100935.59;5014351;28;20313;-76
2022/12/30 01:17:19;;;;;;;;;;;;;;;8.90;69.05;100920.50;5014282;28;19917;-75
2022/12/30 01:19:45;;;;;;;;;;;;;;;8.88;68.76;100929.63;5013695;28;20332;-76
2022/12/30 01:22:10;;;;;;;;;;;;;;;8.88;68.91;100931.50;5014926;28;19917;-76
2022/12/30 01:24:36;;;;;;;;;;;;;;;8.88;68.83;100934.19;5013992;28;20016;-75
2022/12/30 01:27:01;;;;;;;;;;;;;;;8.86;68.77;100931.72;5014093;28;19968;-75
2022/12/30 01:29:28;;;;;;;;;;;;;;;8.85;68.80;100951.63;5013601;28;20365;-75
2022/12/30 01:31:54;;;;;;;;;;;;;;;8.84;68.82;100950.00;5014000;28;19914;-76
2022/12/30 01:34:20;;;;;;;;;;;;;;;8.84;68.78;100946.47;5013704;28;19918;-75
2022/12/30 01:36:45;;;;;;;;;;;;;;;8.82;69.01;100937.78;5013889;28;20433;-75
2022/12/30 01:39:10;;;;;;;;;;;;;;;8.82;68.98;100948.53;5013856;28;20282;-76
2022/12/30 01:41:36;;;;;;;;;;;;;;;8.81;68.70;100957.69;5013227;28;19918;-76
2022/12/30 01:44:01;;;;;;;;;;;;;;;8.79;68.91;100960.59;5012625;28;20025;-75
2022/12/30 01:46:28;;;;;;;;;;;;;;;8.79;68.73;100963.28;5013474;28;20369;-75
2022/12/30 01:48:55;;;;;;;;;;;;;;;8.78;68.71;100963.53;5013907;28;19953;-76
2022/12/30 01:51:28;;;;;;;;;;;;;;;8.77;68.95;100959.19;5013828;28;19985;-75
2022/12/30 01:53:56;;;;;;;;;;;;;;;8.76;68.79;100958.34;5014096;28;20269;-75
2022/12/30 01:56:41;;;;;;;;;;;;;;;8.75;68.64;100959.41;5013846;28;19921;-76
2022/12/30 01:59:07;;;;;;;;;;;;;;;8.74;68.70;100960.44;5013627;28;19918;-76
2022/12/30 02:01:33;;;;;;;;;;;;;;;8.74;68.86;100954.25;5014403;28;19914;-75
2022/12/30 02:04:04;;;;;;;;;;;;;;;8.73;68.83;100956.13;5012541;28;20337;-76
2022/12/30 02:06:34;;;;;;;;;;;;;;;8.71;68.86;100952.81;5012660;28;19929;-76
2022/12/30 02:09:00;;;;;;;;;;;;;;;8.71;69.04;100952.00;5013709;28;19945;-75
2022/12/30 02:11:26;;;;;;;;;;;;;;;8.69;69.06;100946.84;5013217;28;20508;-75
2022/12/30 02:13:52;;;;;;;;;;;;;;;8.69;68.88;100948.72;5016884;28;19947;-76
2022/12/30 02:16:33;;;;;;;;;;;;;;;8.68;68.91;100949.78;5015846;28;19992;-76
2022/12/30 02:19:16;;;;;;;;;;;;;;;8.65;68.83;100943.78;5017890;28;19914;-76
2022/12/30 02:21:56;;;;;;;;;;;;;;;8.66;68.85;100940.03;5017264;28;19967;-76
2022/12/30 02:24:30;;;;;;;;;;;;;;;8.64;68.98;100927.84;5015779;28;19917;-75
2022/12/30 02:27:04;;;;;;;;;;;;;;;8.62;68.75;100925.38;5017014;28;19963;-76
2022/12/30 02:29:48;;;;;;;;;;;;;;;8.62;68.76;100916.50;5016793;28;19973;-75
2022/12/30 02:32:23;;;;;;;;;;;;;;;8.60;68.86;100914.00;5017418;28;19913;-76
2022/12/30 02:35:06;;;;;;;;;;;;;;;8.60;68.76;100908.63;5016884;28;19913;-76
2022/12/30 02:37:37;;;;;;;;;;;;;;;8.59;68.86;100900.75;5016755;28;19920;-74
2022/12/30 02:40:02;;;;;;;;;;;;;;;8.59;68.76;100900.75;5016726;28;19914;-76
2022/12/30 02:45:24;;;;;;;;;;;;;;;8.56;68.75;100904.72;5017008;28;20269;-75
2022/12/30 02:47:55;;;;;;;;;;;;;;;8.56;68.85;100896.66;5016841;28;20346;-76
2022/12/30 02:53:07;;;;;;;;;;;;;;;8.55;68.65;100895.03;5016844;28;19924;-75
2022/12/30 02:55:32;;;;;;;;;;;;;;;8.55;68.72;100894.22;5016687;28;19922;-75
2022/12/30 02:57:58;;;;;;;;;;;;;;;8.54;68.74;100898.78;5016980;28;20320;-75
2022/12/30 03:06:23;;;;;;;;;;;;;;;8.51;68.96;100907.28;5016028;28;19920;-74
2022/12/30 03:08:58;;;;;;;;;;;;;;;8.50;68.64;100894.88;5015202;28;19969;-74
2022/12/30 03:11:26;;;;;;;;;;;;;;;8.49;69.02;100897.78;5015179;28;20369;-76
2022/12/30 03:14:04;;;;;;;;;;;;;;;8.48;68.81;100899.66;5016072;28;19916;-75
2022/12/30 03:16:35;;;;;;;;;;;;;;;8.47;68.65;100889.94;5016534;28;19914;-75
2022/12/30 03:19:13;;;;;;;;;;;;;;;8.47;68.83;100898.03;5014685;28;19917;-76
2022/12/30 03:21:39;;;;;;;;;;;;;;;8.46;68.83;100885.59;5016394;28;19913;-76
2022/12/30 03:27:05;;;;;;;;;;;;;;;8.45;68.76;100886.66;5016398;28;19959;-75
2022/12/30 03:29:39;;;;;;;;;;;;;;;8.44;68.86;100885.00;5015886;28;19913;-75
2022/12/30 03:32:05;;;;;;;;;;;;;;;8.42;68.88;100882.53;5015674;28;20285;-75
2022/12/30 03:34:31;;;;;;;;;;;;;;;8.43;68.70;100875.28;5015824;28;19919;-76
2022/12/30 03:37:00;;;;;;;;;;;;;;;8.41;68.65;100878.19;5016154;28;20004;-76
2022/12/30 03:39:30;;;;;;;;;;;;;;;8.41;68.84;100872.00;5015536;28;19979;-75
2022/12/30 03:41:56;;;;;;;;;;;;;;;8.41;68.93;100874.69;5015687;28;19999;-76
2022/12/30 03:44:22;;;;;;;;;;;;;;;8.40;68.67;100881.94;5015562;28;19913;-75
2022/12/30 03:46:47;;;;;;;;;;;;;;;8.40;68.62;100879.25;5014306;28;19928;-76
2022/12/30 03:49:13;;;;;;;;;;;;;;;8.38;68.83;100881.31;4997876;28;19925;-76
2022/12/30 03:51:38;;;;;;;;;;;;;;;8.37;68.94;100885.06;5015074;28;19913;-76
2022/12/30 03:54:04;;;;;;;;;;;;;;;8.36;68.61;100880.69;5014957;28;19921;-75
2022/12/30 03:56:29;;;;;;;;;;;;;;;8.36;68.69;100893.34;5015884;28;19918;-75
2022/12/30 03:58:54;;;;;;;;;;;;;;;8.35;68.73;100892.53;5015086;28;20388;-75
2022/12/30 04:01:19;;;;;;;;;;;;;;;8.34;68.79;100895.44;5013682;28;19918;-75
2022/12/30 04:03:45;;;;;;;;;;;;;;;8.33;68.65;100891.91;5015130;28;19913;-75
2022/12/30 04:06:11;;;;;;;;;;;;;;;8.32;68.60;100887.59;5015170;28;19919;-75
2022/12/30 04:08:36;;;;;;;;;;;;;;;8.31;68.74;100902.09;5015089;28;19913;-75
2022/12/30 04:11:01;;;;;;;;;;;;;;;8.31;68.74;100904.78;5013791;28;19917;-76
2022/12/30 04:13:26;;;;;;;;;;;;;;;8.30;68.68;100900.44;5013649;28;20327;-74
2022/12/30 04:15:52;;;;;;;;;;;;;;;8.28;68.79;100902.53;5014942;28;19917;-76
2022/12/30 04:18:17;;;;;;;;;;;;;;;8.28;68.86;100905.22;5013439;28;19925;-76
2022/12/30 04:20:43;;;;;;;;;;;;;;;8.27;68.91;100894.72;5013575;28;19924;-75
2022/12/30 04:23:08;;;;;;;;;;;;;;;8.26;68.75;100891.16;5014812;28;19921;-75
2022/12/30 04:25:33;;;;;;;;;;;;;;;8.26;68.68;100890.34;5015380;28;20302;-75
2022/12/30 04:27:59;;;;;;;;;;;;;;;8.23;68.94;100881.66;5014956;28;20371;-75
2022/12/30 04:30:24;;;;;;;;;;;;;;;8.24;68.89;100882.53;5014784;28;19925;-74
2022/12/30 04:32:49;;;;;;;;;;;;;;;8.23;68.84;100875.47;5014916;28;20123;-75
2022/12/30 04:35:15;;;;;;;;;;;;;;;8.23;68.92;100883.53;5014311;28;20298;-74
2022/12/30 04:37:40;;;;;;;;;;;;;;;8.22;68.81;100879.22;5014338;28;19918;-74
2022/12/30 04:40:05;;;;;;;;;;;;;;;8.21;68.59;100875.72;5014427;28;19923;-75
2022/12/30 04:42:31;;;;;;;;;;;;;;;8.20;68.72;100881.31;5014504;28;20007;-75
2022/12/30 04:44:56;;;;;;;;;;;;;;;8.19;68.71;100880.50;5014371;28;19969;-74
2022/12/30 04:47:21;;;;;;;;;;;;;;;8.19;68.89;100877.00;5014440;28;19980;-74
2022/12/30 04:49:46;;;;;;;;;;;;;;;8.18;68.74;100872.63;5014380;28;19921;-75
2022/12/30 04:52:12;;;;;;;;;;;;;;;8.18;68.59;100872.63;5014341;28;19918;-74
2022/12/30 04:54:37;;;;;;;;;;;;;;;8.17;68.54;100881.75;5013136;28;20011;-75
2022/12/30 04:57:02;;;;;;;;;;;;;;;8.15;68.68;100868.53;5014308;28;20378;-74
2022/12/30 04:59:27;;;;;;;;;;;;;;;8.14;68.74;100874.13;5014283;28;19971;-75
2022/12/30 05:01:53;;;;;;;;;;;;;;;8.13;68.81;100876.00;5014136;28;20294;-75
2022/12/30 05:04:18;;;;;;;;;;;;;;;8.12;68.64;100870.84;5013076;28;19917;-75
2022/12/30 05:06:43;;;;;;;;;;;;;;;8.12;68.44;100868.16;5014142;28;19963;-74
2022/12/30 05:09:08;;;;;;;;;;;;;;;8.10;68.76;100857.59;5012823;28;19921;-76
2022/12/30 05:11:34;;;;;;;;;;;;;;;8.10;68.66;100859.47;5014203;28;19917;-75
2022/12/30 05:13:59;;;;;;;;;;;;;;;8.08;68.83;100856.19;5013824;28;20071;-75
2022/12/30 05:16:24;;;;;;;;;;;;;;;8.07;68.70;100852.69;5012602;28;19921;-75
2022/12/30 05:18:49;;;;;;;;;;;;;;;8.05;68.78;100845.88;5012997;28;20376;-74
2022/12/30 05:21:15;;;;;;;;;;;;;;;8.07;68.65;100855.38;5013089;28;20374;-75
2022/12/30 05:26:31;;;;;;;;;;;;;;;8.03;68.72;100848.78;5012732;28;19957;-74
2022/12/30 05:28:56;;;;;;;;;;;;;;;8.02;68.56;100861.41;5013893;28;20439;-73
2022/12/30 05:31:22;;;;;;;;;;;;;;;8.01;68.50;100856.25;5013671;28;19913;-74
2022/12/30 05:33:47;;;;;;;;;;;;;;;8.00;68.81;100857.31;5013655;28;20004;-74
2022/12/30 05:36:12;;;;;;;;;;;;;;;7.99;68.70;100853.78;5014206;28;19913;-74
2022/12/30 05:38:38;;;;;;;;;;;;;;;7.97;68.76;100849.69;5014089;28;19917;-74
2022/12/30 05:41:04;;;;;;;;;;;;;;;7.96;68.45;100848.03;5013781;28;19913;-73
2022/12/30 05:43:29;;;;;;;;;;;;;;;7.95;68.52;100855.28;5013931;28;19960;-74
2022/12/30 05:45:55;;;;;;;;;;;;;;;7.94;68.67;100852.81;5014108;28;19913;-73
2022/12/30 05:48:20;;;;;;;;;;;;;;;7.94;68.69;100859.03;5015732;28;20349;-73
2022/12/30 05:50:49;;;;;;;;;;;;;;;7.93;68.65;100851.16;5017712;28;20012;-75
2022/12/30 05:53:14;;;;;;;;;;;;;;;7.92;68.53;100860.28;5017458;28;19918;-74
2022/12/30 05:55:39;;;;;;;;;;;;;;;7.91;68.57;100854.09;5017634;28;19924;-75
2022/12/30 05:58:05;;;;;;;;;;;;;;;7.91;68.75;100850.56;5017151;28;19999;-73
2022/12/30 06:00:30;;;;;;;;;;;;;;;7.89;68.67;100850.81;5017444;28;20382;-74
2022/12/30 06:02:55;;;;;;;;;;;;;;;7.89;68.73;100850.81;5017417;28;20284;-74
2022/12/30 06:05:20;;;;;;;;;;;;;;;7.88;68.79;100842.94;5017168;28;19918;-74
2022/12/30 06:07:46;;;;;;;;;;;;;;;7.87;68.62;100841.31;5017324;28;19980;-74
2022/12/30 06:10:11;;;;;;;;;;;;;;;7.86;68.61;100834.25;5016571;28;19967;-74
2022/12/30 06:12:36;;;;;;;;;;;;;;;7.86;68.64;100826.19;5017311;28;19917;-74
2022/12/30 06:15:02;;;;;;;;;;;;;;;7.85;68.56;100822.69;5017186;28;19923;-74
2022/12/30 06:17:27;;;;;;;;;;;;;;;7.84;68.47;100820.22;5017173;28;19921;-74
2022/12/30 06:19:52;;;;;;;;;;;;;;;7.84;68.60;100820.22;5016873;28;19923;-74
2022/12/30 06:22:17;;;;;;;;;;;;;;;7.83;68.74;100821.28;5016269;28;19929;-74
2022/12/30 06:24:43;;;;;;;;;;;;;;;7.80;68.70;100815.28;5017078;28;19913;-73
2022/12/30 06:27:08;;;;;;;;;;;;;;;7.79;68.72;100805.59;5017239;28;20003;-74
2022/12/30 06:29:33;;;;;;;;;;;;;;;7.78;68.57;100805.78;5016962;28;19917;-73
2022/12/30 06:31:58;;;;;;;;;;;;;;;7.77;68.67;100804.97;5016372;28;19922;-74
2022/12/30 06:34:24;;;;;;;;;;;;;;;7.76;68.57;100797.97;5016878;28;19923;-73
2022/12/30 06:36:49;;;;;;;;;;;;;;;7.75;68.80;100798.19;4999271;28;19917;-74
2022/12/30 06:39:14;;;;;;;;;;;;;;;7.73;68.88;100787.63;5016734;28;20377;-74
2022/12/30 06:41:39;;;;;;;;;;;;;;;7.73;68.96;100792.19;5016732;28;19976;-73
2022/12/30 06:44:05;;;;;;;;;;;;;;;7.70;68.93;100780.03;5015960;28;19917;-73
2022/12/30 06:46:30;;;;;;;;;;;;;;;7.70;68.88;100774.66;5015293;28;19952;-74
2022/12/30 06:48:55;;;;;;;;;;;;;;;7.69;68.80;100772.19;5016188;28;20328;-73
2022/12/30 06:51:21;;;;;;;;;;;;;;;7.69;68.80;100777.56;5016052;28;19949;-73
2022/12/30 06:53:46;;;;;;;;;;;;;;;7.68;68.77;100765.97;5015123;28;20424;-73
2022/12/30 06:56:11;;;;;;;;;;;;;;;7.67;68.94;100761.66;5017235;28;19929;-73
2022/12/30 06:58:37;;;;;;;;;;;;;;;7.66;69.01;100749.28;5015961;28;19917;-73
2022/12/30 07:01:02;;;;;;;;;;;;;;;7.66;68.64;100743.91;5016248;28;19913;-73
2022/12/30 07:03:27;;;;;;;;;;;;;;;7.65;68.76;100741.41;5017151;28;19945;-73
2022/12/30 07:05:53;;;;;;;;;;;;;;;7.64;68.94;100737.09;5014930;28;20008;-72
2022/12/30 07:08:18;;;;;;;;;;;;;;;7.64;68.71;100723.66;5016189;28;19913;-73
2022/12/30 07:10:43;;;;;;;;;;;;;;;7.63;69.02;100730.88;5015768;28;20289;-72
2022/12/30 07:13:10;;;;;;;;;;;;;;;7.63;68.78;100717.44;5015773;28;19927;-73
2022/12/30 07:15:35;;;;;;;;;;;;;;;7.63;68.85;100717.44;5016297;28;19921;-74
2022/12/30 07:18:01;;;;;;;;;;;;;;;7.62;68.92;100723.88;5016159;28;19917;-74
2022/12/30 07:20:26;;;;;;;;;;;;;;;7.61;68.92;100722.22;5014676;28;20433;-73
2022/12/30 07:22:51;;;;;;;;;;;;;;;7.59;68.77;100727.00;5015868;28;19917;-73
2022/12/30 07:25:16;;;;;;;;;;;;;;;7.59;68.94;100721.63;5015884;28;19945;-73
2022/12/30 07:27:42;;;;;;;;;;;;;;;7.58;68.78;100709.22;5015811;28;20024;-73
2022/12/30 07:30:07;;;;;;;;;;;;;;;7.59;69.16;100718.94;5016213;28;19975;-73
2022/12/30 07:32:32;;;;;;;;;;;;;;;7.59;68.75;100710.88;5015769;28;19917;-73
2022/12/30 07:34:58;;;;;;;;;;;;;;;7.58;69.03;100695.78;5015695;28;20004;-74
2022/12/30 07:37:23;;;;;;;;;;;;;;;7.57;68.87;100692.28;5015299;28;19913;-73
2022/12/30 07:39:48;;;;;;;;;;;;;;;7.57;68.94;100686.91;5015550;28;19991;-73
2022/12/30 07:42:14;;;;;;;;;;;;;;;7.57;69.00;100686.09;5015762;28;19913;-73
2022/12/30 07:44:39;;;;;;;;;;;;;;;7.56;68.82;100679.06;5016127;28;20340;-74
2022/12/30 07:47:05;;;;;;;;;;;;;;;7.56;68.91;100673.69;5014960;28;19924;-74
2022/12/30 07:49:30;;;;;;;;;;;;;;;7.55;68.99;100680.09;5015245;28;19914;-73
2022/12/30 07:51:55;;;;;;;;;;;;;;;7.54;68.84;100670.41;5015055;28;20263;-73
2022/12/30 07:54:20;;;;;;;;;;;;;;;7.52;68.95;100667.13;5015127;28;19960;-73
2022/12/30 07:56:46;;;;;;;;;;;;;;;7.51;68.87;100655.56;5015056;28;19918;-72
2022/12/30 07:59:12;;;;;;;;;;;;;;;7.52;68.79;100656.38;5015140;28;20350;-73
2022/12/30 08:01:37;;;;;;;;;;;;;;;7.51;69.12;100647.50;5015156;28;19913;-73
2022/12/30 08:04:02;;;;;;;;;;;;;;;7.51;68.75;100646.66;5015358;28;20273;-73
2022/12/30 08:06:27;;;;;;;;;;;;;;;7.51;69.27;100633.22;5014890;28;19921;-73
2022/12/30 08:08:53;;;;;;;;;;;;;;;7.49;68.99;100651.44;5015014;28;19917;-71
2022/12/30 08:11:18;;;;;;;;;;;;;;;7.48;69.30;100636.34;5013540;28;19968;-75
2022/12/30 08:13:43;;;;;;;;;;;;;;;7.48;69.21;100641.72;5015248;28;19917;-73
2022/12/30 08:16:10;;;;;;;;;;;;;;;7.48;69.17;100622.91;5014856;28;19949;-73
2022/12/30 08:18:36;;;;;;;;;;;;;;;7.47;69.13;100611.34;5014857;28;19974;-74
2022/12/30 08:21:02;;;;;;;;;;;;;;;7.48;69.12;100618.34;5014630;28;20379;-75
2022/12/30 08:23:31;;;;;;;;;;;;;;;7.48;69.23;100609.47;5014787;28;19924;-73
2022/12/30 08:25:56;;;;;;;;;;;;;;;7.47;69.07;100614.03;5014893;28;19919;-74
2022/12/30 08:28:22;;;;;;;;;;;;;;;7.47;69.25;100605.97;5015154;28;19932;-74
2022/12/30 08:30:47;;;;;;;;;;;;;;;7.47;69.31;100605.16;5014404;28;19917;-73
2022/12/30 08:33:13;;;;;;;;;;;;;;;7.48;68.99;100598.72;5014729;28;20264;-73
2022/12/30 08:35:38;;;;;;;;;;;;;;;7.47;69.15;100592.53;5014365;28;20387;-74
2022/12/30 08:38:04;;;;;;;;;;;;;;;7.48;69.23;100596.84;5015087;28;19917;-73
2022/12/30 08:40:30;;;;;;;;;;;;;;;7.49;69.10;100589.63;5014132;28;19968;-73
2022/12/30 08:42:56;;;;;;;;;;;;;;;7.48;69.04;100585.28;5014575;28;19953;-72
2022/12/30 08:45:21;;;;;;;;;;;;;;;7.49;69.19;100592.31;5014665;28;19917;-73
2022/12/30 08:47:46;;;;;;;;;;;;;;;7.48;68.94;100587.97;5013229;28;19939;-74
2022/12/30 08:50:11;;;;;;;;;;;;;;;7.48;69.13;100574.53;5014827;28;20312;-73
2022/12/30 08:52:37;;;;;;;;;;;;;;;7.48;69.21;100575.34;5014096;28;20077;-73
2022/12/30 08:55:02;;;;;;;;;;;;;;;7.49;68.90;100570.81;5014296;28;19975;-73
2022/12/30 08:57:27;;;;;;;;;;;;;;;7.49;69.24;100565.44;5014776;28;20419;-74
2022/12/30 08:59:53;;;;;;;;;;;;;;;7.48;69.05;100559.22;5014248;28;20400;-73
2022/12/30 09:02:18;;;;;;;;;;;;;;;7.47;69.22;100556.78;5013859;28;20293;-73
2022/12/30 09:04:43;;;;;;;;;;;;;;;7.47;69.18;100549.53;5014458;28;19917;-72
2022/12/30 09:07:09;;;;;;;;;;;;;;;7.49;69.15;100544.75;5014129;28;19945;-73
2022/12/30 09:09:36;;;;;;;;;;;;;;;7.48;69.20;100543.09;5014209;28;19968;-73
2022/12/30 09:12:01;;;;;;;;;;;;;;;7.48;69.23;100543.09;5014166;28;19918;-74
2022/12/30 09:14:26;;;;;;;;;;;;;;;7.48;69.25;100544.97;5014514;28;19924;-73
2022/12/30 09:16:52;;;;;;;;;;;;;;;7.49;69.32;100543.94;5014015;28;19945;-73
2022/12/30 09:19:17;;;;;;;;;;;;;;;7.49;69.12;100542.06;5013596;28;19980;-71
2022/12/30 09:21:42;;;;;;;;;;;;;;;7.49;68.96;100533.19;5014083;28;19925;-74
2022/12/30 09:24:09;;;;;;;;;;;;;;;7.49;69.13;100527.81;5017420;28;20350;-74
2022/12/30 09:26:34;;;;;;;;;;;;;;;7.48;69.12;100523.47;5018424;28;19913;-75
2022/12/30 09:29:00;;;;;;;;;;;;;;;7.48;69.48;100510.03;5017973;28;19913;-75
2022/12/30 09:31:26;;;;;;;;;;;;;;;7.48;69.50;100520.78;5017923;28;19937;-75
2022/12/30 09:33:51;;;;;;;;;;;;;;;7.47;69.29;100503.84;5018063;28;20011;-75
2022/12/30 09:36:17;;;;;;;;;;;;;;;7.48;69.52;100501.97;5017899;28;19913;-75
2022/12/30 09:38:43;;;;;;;;;;;;;;;7.48;69.56;100501.97;5017846;28;19913;-75
2022/12/30 09:41:08;;;;;;;;;;;;;;;7.48;69.55;100492.03;5017599;28;19921;-75
2022/12/30 09:43:52;;;;;;;;;;;;;;;7.48;69.60;100496.59;5017340;28;20369;-75
2022/12/30 09:46:27;;;;;;;;;;;;;;;7.49;69.69;100498.25;5017698;28;19913;-75
2022/12/30 09:49:00;;;;;;;;;;;;;;;7.48;69.60;100483.97;5018327;28;19956;-75
2022/12/30 09:51:29;;;;;;;;;;;;;;;7.50;69.57;100476.50;5017316;28;19960;-75
2022/12/30 09:53:56;;;;;;;;;;;;;;;7.50;69.42;100463.06;5017598;28;19917;-75
2022/12/30 09:56:33;;;;;;;;;;;;;;;7.51;69.67;100470.09;5018327;28;20008;-75
2022/12/30 09:59:03;;;;;;;;;;;;;;;7.52;69.52;100471.72;5017440;28;19917;-75
2022/12/30 10:01:34;;;;;;;;;;;;;;;7.53;69.52;100453.72;5017065;28;19963;-75
2022/12/30 10:04:00;;;;;;;;;;;;;;;7.52;69.79;100452.09;5017412;28;20419;-75
2022/12/30 10:06:32;;;;;;;;;;;;;;;7.53;69.60;100441.13;5017186;28;19913;-75
2022/12/30 10:09:04;;;;;;;;;;;;;;;7.54;69.49;100428.50;5017908;28;19917;-76
2022/12/30 10:11:38;;;;;;;;;;;;;;;7.55;69.49;100416.69;5017321;28;19914;-76
2022/12/30 10:14:13;;;;;;;;;;;;;;;7.57;69.62;100419.97;5017492;28;19940;-75
2022/12/30 10:16:45;;;;;;;;;;;;;;;7.55;69.47;100412.13;5017251;28;19966;-76
2022/12/30 10:19:19;;;;;;;;;;;;;;;7.57;69.61;100399.28;5017194;28;20380;-75
2022/12/30 10:22:01;;;;;;;;;;;;;;;7.58;69.58;100406.31;5017262;28;19936;-75
2022/12/30 10:24:38;;;;;;;;;;;;;;;7.58;69.69;100392.88;5016920;28;19920;-76
2022/12/30 10:27:16;;;;;;;;;;;;;;;7.58;69.51;100392.88;5016796;28;20007;-75
2022/12/30 10:29:43;;;;;;;;;;;;;;;7.61;69.46;100388.91;5017049;28;19920;-76
2022/12/30 10:32:19;;;;;;;;;;;;;;;7.62;69.70;100378.97;5016923;28;19921;-76
2022/12/30 10:34:46;;;;;;;;;;;;;;;7.62;69.41;100363.66;5016627;28;19913;-74
2022/12/30 10:37:13;;;;;;;;;;;;;;;7.64;69.56;100352.69;5015537;28;20362;-75
2022/12/30 10:39:43;;;;;;;;;;;;;;;7.65;69.60;100357.81;5016683;28;19925;-74
2022/12/30 10:42:21;;;;;;;;;;;;;;;7.66;69.66;100350.56;5017334;28;19917;-73
2022/12/30 10:45:01;;;;;;;;;;;;;;;7.70;69.63;100335.59;5016638;28;19913;-72
2022/12/30 10:47:45;;;;;;;;;;;;;;;7.74;69.73;100318.78;5016480;28;19913;-75
2022/12/30 10:50:13;;;;;;;;;;;;;;;7.75;69.83;100308.84;5016522;28;20357;-75
2022/12/30 10:52:38;;;;;;;;;;;;;;;7.76;69.69;100310.47;5016193;28;19917;-75
2022/12/30 10:55:24;;;;;;;;;;;;;;;7.76;69.56;100295.16;5015891;28;20353;-75
2022/12/30 10:57:51;;;;;;;;;;;;;;;7.76;69.62;100289.78;5016344;28;19972;-75
2022/12/30 11:00:17;;;;;;;;;;;;;;;7.76;69.75;100270.97;5015888;28;20028;-75
2022/12/30 11:02:51;;;;;;;;;;;;;;;7.76;69.76;100270.13;5016797;28;20373;-76
2022/12/30 11:05:26;;;;;;;;;;;;;;;7.78;69.68;100263.47;5015234;28;20250;-75
2022/12/30 11:07:55;;;;;;;;;;;;;;;7.79;69.94;100258.94;5015877;28;20289;-76
2022/12/30 11:10:21;;;;;;;;;;;;;;;7.79;69.74;100250.88;5016098;28;19913;-75
2022/12/30 11:15:30;;;;;;;;;;;;;;;7.80;69.65;100229.09;5015691;28;20376;-75
2022/12/30 11:17:56;;;;;;;;;;;;;;;7.82;69.99;100220.00;5015863;28;19913;-75
2022/12/30 11:20:30;;;;;;;;;;;;;;;7.81;69.73;100205.72;5016028;28;19913;-76
2022/12/30 11:22:56;;;;;;;;;;;;;;;7.80;69.83;100199.53;5016392;28;19918;-75
2022/12/30 11:25:43;;;;;;;;;;;;;;;7.83;69.88;100187.47;5015671;28;20354;-74
2022/12/30 11:28:35;;;;;;;;;;;;;;;7.83;69.86;100189.34;5016080;28;20362;-76
2022/12/30 11:31:08;;;;;;;;;;;;;;;7.83;69.79;100178.59;5013693;28;19913;-76
2022/12/30 11:33:35;;;;;;;;;;;;;;;7.83;69.94;100149.03;5015740;28;19920;-75
2022/12/30 11:36:10;;;;;;;;;;;;;;;7.84;69.85;100145.25;5015753;28;20004;-75
2022/12/30 11:38:39;;;;;;;;;;;;;;;7.86;70.00;100132.41;5015391;28;19913;-75
2022/12/30 11:41:16;;;;;;;;;;;;;;;7.86;69.95;100127.03;5015549;28;19913;-75
2022/12/30 11:43:43;;;;;;;;;;;;;;;7.86;69.79;100124.34;5016031;28;19910;-75
2022/12/30 11:46:10;;;;;;;;;;;;;;;7.86;70.10;100100.13;5014554;28;19917;-80
2022/12/30 11:48:43;;;;;;;;;;;;;;;7.89;70.22;100102.38;5015673;28;19913;-80
2022/12/30 11:51:28;;;;;;;;;;;;;;;7.96;69.85;100111.09;5015178;28;19932;-72
2022/12/30 11:54:11;;;;;;;;;;;;;;;7.99;70.12;100100.69;5015553;28;19918;-72
2022/12/30 11:56:55;;;;;;;;;;;;;;;8.04;70.06;100091.88;5014892;28;19913;-72
2022/12/30 11:59:23;;;;;;;;;;;;;;;8.07;70.11;100088.72;5015067;28;20346;-72
2022/12/30 12:01:50;;;;;;;;;;;;;;;8.10;69.68;100079.34;5014093;28;19914;-71
2022/12/30 12:04:34;;;;;;;;;;;;;;;8.13;69.68;100070.78;5015166;28;20012;-72
2022/12/30 12:07:00;;;;;;;;;;;;;;;8.15;69.76;100055.22;5013808;28;19913;-71
2022/12/30 12:09:31;;;;;;;;;;;;;;;8.16;69.69;100054.16;5014710;28;19914;-72
2022/12/30 12:11:57;;;;;;;;;;;;;;;8.18;69.92;100041.28;5014887;28;19968;-72
2022/12/30 12:14:24;;;;;;;;;;;;;;;8.19;69.89;100049.09;5014707;28;19913;-72
2022/12/30 12:17:00;;;;;;;;;;;;;;;8.21;69.79;100036.22;5015195;28;19920;-71
2022/12/30 12:19:39;;;;;;;;;;;;;;;8.22;69.77;100028.97;5014235;28;20292;-72
2022/12/30 12:22:10;;;;;;;;;;;;;;;8.24;69.81;100021.47;5014818;28;19914;-72
2022/12/30 12:24:42;;;;;;;;;;;;;;;8.25;69.78;100015.03;5014565;28;20013;-72
2022/12/30 12:27:07;;;;;;;;;;;;;;;8.26;69.58;99997.00;5015017;28;19920;-72
2022/12/30 12:29:33;;;;;;;;;;;;;;;8.28;69.81;99994.88;5012888;28;19913;-72
2022/12/30 12:32:07;;;;;;;;;;;;;;;8.28;69.68;99979.53;5014742;28;19917;-72
2022/12/30 12:34:51;;;;;;;;;;;;;;;8.28;70.00;99974.16;5014289;28;20011;-73
2022/12/30 12:37:16;;;;;;;;;;;;;;;8.29;69.95;99958.84;5014522;28;20353;-72
2022/12/30 12:40:08;;;;;;;;;;;;;;;8.30;69.73;99955.91;5014157;28;19968;-71
2022/12/30 12:42:45;;;;;;;;;;;;;;;8.31;69.66;99940.56;4998263;28;19968;-72
2022/12/30 12:45:10;;;;;;;;;;;;;;;8.32;69.67;99928.75;5014180;28;20407;-71
2022/12/30 12:47:39;;;;;;;;;;;;;;;8.32;69.89;99908.03;5013934;28;19914;-72
2022/12/30 12:50:23;;;;;;;;;;;;;;;8.34;69.95;99897.00;5014168;28;19920;-72
2022/12/30 12:52:54;;;;;;;;;;;;;;;8.34;69.86;99879.03;5013370;28;19956;-72
2022/12/30 12:55:41;;;;;;;;;;;;;;;8.35;69.68;99855.59;5014074;28;19929;-72
2022/12/30 12:58:28;;;;;;;;;;;;;;;8.36;69.87;99841.06;5014789;28;20297;-72
2022/12/30 13:01:12;;;;;;;;;;;;;;;8.37;69.61;99816.63;5014357;28;19914;-72
2022/12/30 13:04:00;;;;;;;;;;;;;;;8.36;70.05;99803.41;5014077;28;19960;-72
2022/12/30 13:06:25;;;;;;;;;;;;;;;8.38;69.95;99798.59;4994950;28;19910;-72
2022/12/30 13:09:06;;;;;;;;;;;;;;;8.38;69.99;99782.44;5012961;28;19920;-72
2022/12/30 13:11:31;;;;;;;;;;;;;;;8.39;70.00;99784.06;5013484;28;20276;-73
2022/12/30 13:14:01;;;;;;;;;;;;;;;8.39;70.12;99776.84;5013869;28;20000;-71
2022/12/30 13:16:29;;;;;;;;;;;;;;;8.39;70.06;99771.47;5014192;28;19913;-74
2022/12/30 13:18:55;;;;;;;;;;;;;;;8.40;70.06;99758.81;5014199;28;19967;-71
2022/12/30 13:21:25;;;;;;;;;;;;;;;8.41;69.93;99739.72;5013708;28;19914;-71
2022/12/30 13:24:02;;;;;;;;;;;;;;;8.42;70.03;99743.25;5014005;28;19957;-71
2022/12/30 13:26:29;;;;;;;;;;;;;;;8.43;70.24;99731.41;5014405;28;19971;-72
2022/12/30 13:28:56;;;;;;;;;;;;;;;8.43;70.43;99734.09;5013810;28;19913;-72
2022/12/30 13:31:33;;;;;;;;;;;;;;;8.44;70.30;99724.94;5013451;28;19913;-72
2022/12/30 13:34:17;;;;;;;;;;;;;;;8.44;70.21;99715.00;5013144;28;20401;-72
2022/12/30 13:36:48;;;;;;;;;;;;;;;8.45;70.41;99711.25;5013723;28;20004;-73
2022/12/30 13:39:28;;;;;;;;;;;;;;;8.46;70.45;99706.66;5014006;28;20008;-71
2022/12/30 13:41:59;;;;;;;;;;;;;;;8.45;70.54;99697.78;5012822;28;20359;-72
2022/12/30 13:44:29;;;;;;;;;;;;;;;8.47;70.69;99710.16;5013939;28;19913;-72
2022/12/30 13:46:55;;;;;;;;;;;;;;;8.48;70.76;99687.59;5014009;28;19913;-72